Terminal Aerodrome Forecast
Issued by NWS

Home | Current Version | Previous Version | Text Only | Print | Product List | Glossary Off
Versions: 1 2 3 4 5 6 7 8 9 10 11 12

000
FTUS45 KGGW 171720
TAFOLF
TAF
KOLF 171720Z 1718/1818 01008KT 6SM HZ FEW120
     FM172200 VRB05KT P6SM FEW150
     FM181600 08010KT P6SM FEW110=

USA.gov is the U.S. government's official web portal to all federal, state and local government web resources and services.